Time;durP1;ratioP1;P1;durP2;ratioP2;P2;SDS_P1;SDS_P2;PMS_P1;PMS_P2;Temp;Humidity;BMP_temperature;BMP_pressure;BME280_temperature;BME280_humidity;BME280_pressure;Samples;Min_cycle;Max_cycle;Signal;HPM_P1;HPM_P2
2022/02/14 00:02:18;;;;;;;6.05;3.70;;;;;;;;;;5072973;28;20245;-69
2022/02/14 00:04:45;;;;;;;5.45;3.95;;;;;;;;;;5073393;28;20205;-69
2022/02/14 00:07:14;;;;;;;4.90;3.83;;;;;;;;;;5073585;28;20203;-69
2022/02/14 00:09:41;;;;;;;4.60;3.53;;;;;;;;;;5072955;28;20239;-69
2022/02/14 00:12:09;;;;;;;4.72;4.00;;;;;;;;;;5072889;28;20228;-69
2022/02/14 00:14:36;;;;;;;7.47;4.60;;;;;;;;;;5075430;28;20283;-69
2022/02/14 00:17:03;;;;;;;7.30;3.60;;;;;;;;;;5077136;28;20194;-69
2022/02/14 00:19:30;;;;;;;5.50;3.60;;;;;;;;;;5077194;28;20233;-69
2022/02/14 00:21:58;;;;;;;6.45;3.30;;;;;;;;;;5076984;28;20309;-70
2022/02/14 00:24:26;;;;;;;4.47;3.78;;;;;;;;;;5076628;28;20732;-69
2022/02/14 00:26:54;;;;;;;4.85;3.30;;;;;;;;;;5076896;28;20197;-69
2022/02/14 00:29:22;;;;;;;5.70;3.57;;;;;;;;;;5076942;28;20231;-69
2022/02/14 00:31:49;;;;;;;5.53;3.83;;;;;;;;;;5076841;28;20495;-69
2022/02/14 00:34:17;;;;;;;7.63;4.38;;;;;;;;;;5076864;28;20286;-69
2022/02/14 00:36:44;;;;;;;6.88;4.38;;;;;;;;;;5076889;28;20256;-69
2022/02/14 00:39:11;;;;;;;10.70;4.53;;;;;;;;;;5076391;28;20285;-69
2022/02/14 00:41:40;;;;;;;5.88;4.30;;;;;;;;;;5076370;28;20205;-69
2022/02/14 00:44:07;;;;;;;6.40;3.77;;;;;;;;;;5076325;28;20201;-69
2022/02/14 00:46:34;;;;;;;6.53;3.70;;;;;;;;;;5076295;28;20536;-69
2022/02/14 00:49:02;;;;;;;4.22;3.58;;;;;;;;;;5076282;28;20206;-69
2022/02/14 00:51:29;;;;;;;11.63;3.47;;;;;;;;;;5076462;28;20285;-69
2022/02/14 00:53:56;;;;;;;9.25;3.63;;;;;;;;;;5076854;28;20630;-69
2022/02/14 00:56:24;;;;;;;5.80;3.35;;;;;;;;;;5076587;28;20200;-69
2022/02/14 00:58:52;;;;;;;6.53;3.50;;;;;;;;;;5076118;28;20194;-70
2022/02/14 01:01:20;;;;;;;4.35;3.55;;;;;;;;;;5076379;28;20190;-69
2022/02/14 01:03:48;;;;;;;6.00;3.28;;;;;;;;;;5075975;28;20227;-69
2022/02/14 01:06:15;;;;;;;6.40;3.92;;;;;;;;;;5075987;28;20289;-70
2022/02/14 01:08:42;;;;;;;6.50;3.88;;;;;;;;;;5075939;28;20205;-69
2022/02/14 01:11:09;;;;;;;3.92;3.40;;;;;;;;;;5075895;28;20287;-69
2022/02/14 01:13:37;;;;;;;4.75;3.50;;;;;;;;;;5076306;28;20236;-69
2022/02/14 01:16:06;;;;;;;6.45;3.28;;;;;;;;;;5076300;28;20682;-69
2022/02/14 01:18:34;;;;;;;5.07;3.60;;;;;;;;;;5075753;28;20198;-70
2022/02/14 01:21:01;;;;;;;6.05;3.60;;;;;;;;;;5076501;28;20650;-70
2022/02/14 01:23:29;;;;;;;4.22;3.40;;;;;;;;;;5075882;28;20233;-69
2022/02/14 01:25:56;;;;;;;3.92;3.28;;;;;;;;;;5074732;28;20245;-69
2022/02/14 01:28:23;;;;;;;6.75;3.10;;;;;;;;;;5075842;28;20273;-70
2022/02/14 01:30:50;;;;;;;7.45;3.30;;;;;;;;;;5075895;28;20667;-69
2022/02/14 01:33:19;;;;;;;5.43;3.07;;;;;;;;;;5075678;28;20283;-69
2022/02/14 01:35:47;;;;;;;4.90;3.65;;;;;;;;;;5075938;28;20468;-70
2022/02/14 01:38:14;;;;;;;6.03;3.20;;;;;;;;;;5075746;28;20644;-69
2022/02/14 01:40:41;;;;;;;7.53;3.90;;;;;;;;;;5076276;28;20194;-69
2022/02/14 01:43:09;;;;;;;3.40;3.10;;;;;;;;;;5075207;28;20541;-69
2022/02/14 01:45:36;;;;;;;6.03;3.85;;;;;;;;;;5075556;28;20450;-69
2022/02/14 01:48:04;;;;;;;7.03;3.73;;;;;;;;;;5075518;28;20289;-69
2022/02/14 01:50:32;;;;;;;4.82;3.47;;;;;;;;;;5076082;28;20445;-69
2022/02/14 01:52:59;;;;;;;5.25;3.30;;;;;;;;;;5075390;28;20297;-69
2022/02/14 01:55:27;;;;;;;8.23;4.45;;;;;;;;;;5075375;28;20276;-69
2022/02/14 01:57:55;;;;;;;4.00;3.30;;;;;;;;;;5075374;28;20597;-70
2022/02/14 02:00:23;;;;;;;7.05;3.78;;;;;;;;;;5075359;28;20194;-69
2022/02/14 02:02:50;;;;;;;6.57;3.35;;;;;;;;;;5075168;28;20622;-70
2022/02/14 02:05:18;;;;;;;6.40;3.35;;;;;;;;;;5075594;28;20281;-69
2022/02/14 02:07:47;;;;;;;10.73;4.07;;;;;;;;;;5075150;28;20225;-69
2022/02/14 02:10:16;;;;;;;5.88;3.72;;;;;;;;;;5074759;28;20243;-70
2022/02/14 02:12:50;;;;;;;9.65;4.10;;;;;;;;;;5075490;28;20233;-69
2022/02/14 02:15:17;;;;;;;12.40;3.92;;;;;;;;;;5075468;28;20189;-69
2022/02/14 02:17:44;;;;;;;6.60;3.40;;;;;;;;;;5074544;28;20194;-69
2022/02/14 02:20:14;;;;;;;3.78;3.47;;;;;;;;;;5074861;28;20252;-69
2022/02/14 02:22:41;;;;;;;6.07;3.53;;;;;;;;;;5075177;28;20287;-69
2022/02/14 02:25:11;;;;;;;5.05;3.95;;;;;;;;;;5075071;28;20239;-69
2022/02/14 02:27:39;;;;;;;6.28;3.50;;;;;;;;;;5075246;28;20289;-69
2022/02/14 02:30:08;;;;;;;5.20;3.83;;;;;;;;;;5074683;28;20225;-69
2022/02/14 02:32:35;;;;;;;12.60;3.60;;;;;;;;;;5074961;28;20198;-70
2022/02/14 02:35:03;;;;;;;7.63;4.35;;;;;;;;;;5074908;28;20199;-71
2022/02/14 02:37:30;;;;;;;7.20;3.92;;;;;;;;;;5074474;28;20202;-70
2022/02/14 02:39:58;;;;;;;5.72;3.78;;;;;;;;;;5074494;28;20221;-69
2022/02/14 02:42:26;;;;;;;9.18;3.28;;;;;;;;;;5074307;28;20710;-69
2022/02/14 02:44:54;;;;;;;6.85;3.40;;;;;;;;;;5075263;28;20609;-69
2022/02/14 02:47:22;;;;;;;5.63;3.80;;;;;;;;;;5074077;28;20722;-69
2022/02/14 02:49:50;;;;;;;9.85;4.10;;;;;;;;;;5074327;28;20296;-69
2022/02/14 02:52:18;;;;;;;4.57;3.60;;;;;;;;;;5074096;28;20194;-69
2022/02/14 02:54:45;;;;;;;4.40;3.75;;;;;;;;;;5074973;28;20620;-69
2022/02/14 02:57:13;;;;;;;4.55;3.50;;;;;;;;;;5074126;28;20205;-69
2022/02/14 02:59:41;;;;;;;5.07;3.50;;;;;;;;;;5074129;28;20286;-69
2022/02/14 03:02:09;;;;;;;14.50;3.90;;;;;;;;;;5074030;28;20198;-70
2022/02/14 03:04:36;;;;;;;4.28;3.85;;;;;;;;;;5073613;28;20226;-69
2022/02/14 03:07:04;;;;;;;7.57;3.58;;;;;;;;;;5073725;28;20225;-69
2022/02/14 03:09:31;;;;;;;5.65;3.40;;;;;;;;;;5073709;28;20206;-69
2022/02/14 03:11:58;;;;;;;8.02;3.92;;;;;;;;;;5073929;28;20288;-69
2022/02/14 03:14:26;;;;;;;7.10;3.65;;;;;;;;;;5073587;28;20730;-70
2022/02/14 03:16:54;;;;;;;7.55;3.20;;;;;;;;;;5073557;28;20282;-70
2022/02/14 03:19:22;;;;;;;7.28;3.40;;;;;;;;;;5073471;28;20197;-69
2022/02/14 03:21:49;;;;;;;7.35;3.58;;;;;;;;;;5073819;28;20202;-69
2022/02/14 03:24:17;;;;;;;9.05;3.63;;;;;;;;;;5073917;28;20298;-69
2022/02/14 03:26:44;;;;;;;8.35;3.60;;;;;;;;;;5073782;28;20324;-69
2022/02/14 03:29:14;;;;;;;5.97;3.70;;;;;;;;;;5073432;28;20201;-69
2022/02/14 03:31:41;;;;;;;4.57;2.90;;;;;;;;;;5073703;28;20186;-69
2022/02/14 03:34:10;;;;;;;3.92;3.45;;;;;;;;;;5073412;28;20637;-70
2022/02/14 03:36:37;;;;;;;8.00;3.35;;;;;;;;;;5073760;28;20528;-70
2022/02/14 03:39:05;;;;;;;8.18;3.30;;;;;;;;;;5073286;28;20198;-70
2022/02/14 03:41:32;;;;;;;4.13;3.25;;;;;;;;;;5073581;28;20230;-70
2022/02/14 03:44:00;;;;;;;5.32;3.60;;;;;;;;;;5073258;28;20256;-70
2022/02/14 03:46:27;;;;;;;4.90;3.30;;;;;;;;;;5073221;28;20659;-69
2022/02/14 03:48:54;;;;;;;3.25;3.05;;;;;;;;;;5073034;28;20286;-70
2022/02/14 03:51:23;;;;;;;10.57;4.22;;;;;;;;;;5073191;28;20202;-69
2022/02/14 03:53:50;;;;;;;4.75;3.30;;;;;;;;;;5073167;28;20236;-69
2022/02/14 03:56:17;;;;;;;5.50;3.20;;;;;;;;;;5073673;28;20284;-69
2022/02/14 03:58:44;;;;;;;5.00;3.13;;;;;;;;;;5073092;28;20659;-69
2022/02/14 04:01:12;;;;;;;4.75;3.05;;;;;;;;;;5073425;28;20284;-69
2022/02/14 04:03:39;;;;;;;3.45;3.15;;;;;;;;;;5073109;28;20357;-69
2022/02/14 04:06:06;;;;;;;4.07;3.00;;;;;;;;;;5073368;28;20236;-68
2022/02/14 04:08:35;;;;;;;7.43;4.15;;;;;;;;;;5073398;28;20197;-69
2022/02/14 04:11:02;;;;;;;5.72;3.70;;;;;;;;;;5073517;28;20609;-69
2022/02/14 04:13:29;;;;;;;3.40;3.10;;;;;;;;;;5073260;28;20247;-69
2022/02/14 04:15:57;;;;;;;6.82;3.95;;;;;;;;;;5073619;28;20197;-69
2022/02/14 04:18:24;;;;;;;7.43;3.38;;;;;;;;;;5073597;28;20243;-70
2022/02/14 04:20:52;;;;;;;8.48;3.63;;;;;;;;;;5072919;28;20735;-69
2022/02/14 04:23:19;;;;;;;3.70;3.40;;;;;;;;;;5072645;28;20773;-69
2022/02/14 04:25:48;;;;;;;3.97;3.25;;;;;;;;;;5072876;28;20227;-69
2022/02/14 04:28:15;;;;;;;3.30;3.00;;;;;;;;;;5073235;28;20243;-70
2022/02/14 04:30:42;;;;;;;8.98;3.38;;;;;;;;;;5073118;28;20622;-70
2022/02/14 04:33:09;;;;;;;4.05;2.92;;;;;;;;;;5072999;28;20280;-70
2022/02/14 04:35:37;;;;;;;9.65;3.50;;;;;;;;;;5072736;28;20651;-70
2022/02/14 04:38:04;;;;;;;4.88;3.05;;;;;;;;;;5073161;28;20312;-70
2022/02/14 04:40:33;;;;;;;7.35;3.28;;;;;;;;;;5073139;28;20280;-70
2022/02/14 04:43:02;;;;;;;8.13;2.65;;;;;;;;;;5073308;28;20200;-70
2022/02/14 04:45:30;;;;;;;4.57;3.00;;;;;;;;;;5073029;28;20292;-70
2022/02/14 04:47:57;;;;;;;7.10;3.75;;;;;;;;;;5072615;28;20190;-70
2022/02/14 04:50:25;;;;;;;4.25;3.08;;;;;;;;;;5072893;28;20196;-70
2022/02/14 04:52:52;;;;;;;7.93;3.50;;;;;;;;;;5072482;28;20295;-70
2022/02/14 04:55:20;;;;;;;6.50;4.20;;;;;;;;;;5073169;28;20204;-70
2022/02/14 04:57:47;;;;;;;4.60;3.03;;;;;;;;;;5073316;28;20239;-70
2022/02/14 05:00:16;;;;;;;3.45;2.78;;;;;;;;;;5072802;28;20190;-70
2022/02/14 05:02:44;;;;;;;7.00;3.30;;;;;;;;;;5076105;28;20243;-70
2022/02/14 05:05:11;;;;;;;9.40;3.42;;;;;;;;;;5076122;28;20222;-69
2022/02/14 05:07:38;;;;;;;5.43;3.85;;;;;;;;;;5076654;28;20251;-71
2022/02/14 05:10:06;;;;;;;6.03;3.25;;;;;;;;;;5076275;28;20632;-69
2022/02/14 05:12:34;;;;;;;3.43;3.10;;;;;;;;;;5075849;28;20652;-69
2022/02/14 05:15:01;;;;;;;5.65;3.58;;;;;;;;;;5075864;28;20979;-69
2022/02/14 05:17:30;;;;;;;4.90;3.38;;;;;;;;;;5076473;28;20193;-69
2022/02/14 05:19:57;;;;;;;6.97;2.67;;;;;;;;;;5076610;28;20203;-70
2022/02/14 05:22:24;;;;;;;5.38;2.92;;;;;;;;;;5075184;28;20229;-69
2022/02/14 05:24:51;;;;;;;8.48;2.95;;;;;;;;;;5076165;28;20691;-69
2022/02/14 05:27:19;;;;;;;3.80;2.60;;;;;;;;;;5076268;28;20277;-68
2022/02/14 05:29:46;;;;;;;3.05;2.80;;;;;;;;;;5075955;28;20652;-68
2022/02/14 05:32:14;;;;;;;5.28;3.03;;;;;;;;;;5075953;28;20609;-69
2022/02/14 05:34:42;;;;;;;4.88;3.08;;;;;;;;;;5075656;28;20198;-68
2022/02/14 05:37:09;;;;;;;7.88;3.50;;;;;;;;;;5075972;28;20190;-69
2022/02/14 05:39:37;;;;;;;9.00;3.35;;;;;;;;;;5076386;28;20285;-68
2022/02/14 05:42:04;;;;;;;4.20;2.95;;;;;;;;;;5075370;28;20190;-69
2022/02/14 05:44:31;;;;;;;3.30;3.00;;;;;;;;;;5075557;28;20222;-69
2022/02/14 05:46:59;;;;;;;5.63;2.53;;;;;;;;;;5075560;28;20229;-69
2022/02/14 05:49:26;;;;;;;3.03;2.60;;;;;;;;;;5075211;28;20194;-68
2022/02/14 05:51:55;;;;;;;4.32;2.97;;;;;;;;;;5075333;28;20619;-69
2022/02/14 05:54:22;;;;;;;3.23;2.40;;;;;;;;;;5075592;28;20225;-69
2022/02/14 05:56:49;;;;;;;6.38;3.47;;;;;;;;;;5075550;28;20451;-68
2022/02/14 05:59:17;;;;;;;5.50;2.67;;;;;;;;;;5075243;28;20198;-69
2022/02/14 06:01:44;;;;;;;5.40;3.88;;;;;;;;;;5075470;28;20202;-68
2022/02/14 06:04:12;;;;;;;3.25;2.92;;;;;;;;;;5075011;28;20303;-68
2022/02/14 06:06:39;;;;;;;8.23;2.80;;;;;;;;;;5074883;28;20190;-68
2022/02/14 06:09:08;;;;;;;3.67;3.20;;;;;;;;;;5074915;28;20578;-68
2022/02/14 06:11:35;;;;;;;7.47;5.25;;;;;;;;;;5073948;28;20192;-69
2022/02/14 06:14:03;;;;;;;7.60;5.80;;;;;;;;;;5073681;28;20240;-68
2022/02/14 06:16:30;;;;;;;3.97;3.50;;;;;;;;;;5073705;28;20705;-68
2022/02/14 06:18:57;;;;;;;6.22;3.50;;;;;;;;;;5074354;28;20202;-68
2022/02/14 06:21:25;;;;;;;5.72;3.42;;;;;;;;;;5074639;28;20225;-67
2022/02/14 06:23:53;;;;;;;3.90;3.08;;;;;;;;;;5074755;28;20400;-67
2022/02/14 06:26:22;;;;;;;4.82;2.70;;;;;;;;;;5074383;28;20281;-67
2022/02/14 06:28:49;;;;;;;5.07;2.55;;;;;;;;;;5074707;28;20699;-68
2022/02/14 06:31:16;;;;;;;5.37;4.60;;;;;;;;;;5074288;28;20720;-67
2022/02/14 06:33:49;;;;;;;4.97;3.03;;;;;;;;;;5074343;28;20535;-67
2022/02/14 06:36:17;;;;;;;9.07;3.03;;;;;;;;;;5075177;28;20179;-68
2022/02/14 06:38:45;;;;;;;4.50;2.88;;;;;;;;;;5074540;28;20198;-68
2022/02/14 06:41:12;;;;;;;3.63;2.78;;;;;;;;;;5074171;28;20230;-67
2022/02/14 06:43:41;;;;;;;13.13;2.75;;;;;;;;;;5073994;28;20717;-67
2022/02/14 06:46:08;;;;;;;3.92;2.88;;;;;;;;;;5074532;28;20194;-68
2022/02/14 06:48:35;;;;;;;8.90;3.60;;;;;;;;;;5074560;28;20660;-68
2022/02/14 06:51:03;;;;;;;4.47;2.70;;;;;;;;;;5074106;28;20198;-68
2022/02/14 06:53:30;;;;;;;3.47;2.88;;;;;;;;;;5074373;28;20202;-68
2022/02/14 06:56:00;;;;;;;4.38;3.20;;;;;;;;;;5073849;28;20233;-68
2022/02/14 06:58:27;;;;;;;4.28;2.83;;;;;;;;;;5074232;28;20596;-68
2022/02/14 07:00:56;;;;;;;4.05;2.60;;;;;;;;;;5074066;28;20562;-68
2022/02/14 07:03:23;;;;;;;3.55;3.25;;;;;;;;;;5073947;28;20202;-68
2022/02/14 07:05:50;;;;;;;6.78;3.85;;;;;;;;;;5073789;28;20679;-68
2022/02/14 07:08:18;;;;;;;3.95;2.90;;;;;;;;;;5073655;28;20709;-67
2022/02/14 07:10:45;;;;;;;5.70;3.13;;;;;;;;;;5074185;28;20198;-68
2022/02/14 07:13:12;;;;;;;4.60;2.70;;;;;;;;;;5074131;28;20308;-67
2022/02/14 07:15:40;;;;;;;3.50;2.50;;;;;;;;;;5073577;28;20293;-67
2022/02/14 07:18:12;;;;;;;4.45;2.60;;;;;;;;;;5073728;28;20197;-68
2022/02/14 07:20:39;;;;;;;2.83;2.63;;;;;;;;;;5074015;28;20269;-67
2022/02/14 07:23:06;;;;;;;3.22;2.72;;;;;;;;;;5072857;28;20251;-67
2022/02/14 07:25:33;;;;;;;3.38;2.55;;;;;;;;;;5073674;28;20300;-67
2022/02/14 07:28:01;;;;;;;6.72;2.80;;;;;;;;;;5074419;28;20348;-68
2022/02/14 07:30:28;;;;;;;5.82;3.17;;;;;;;;;;5074292;28;20190;-67
2022/02/14 07:32:55;;;;;;;4.03;2.70;;;;;;;;;;5073329;28;20268;-67
2022/02/14 07:35:24;;;;;;;3.00;2.80;;;;;;;;;;5073197;28;20198;-68
2022/02/14 07:37:51;;;;;;;6.38;3.00;;;;;;;;;;5073285;28;20198;-67
2022/02/14 07:40:19;;;;;;;3.67;2.53;;;;;;;;;;5073242;28;20248;-67
2022/02/14 07:42:46;;;;;;;6.27;2.90;;;;;;;;;;5073901;28;20281;-67
2022/02/14 07:45:13;;;;;;;4.18;3.00;;;;;;;;;;5073114;28;21046;-67
2022/02/14 07:47:41;;;;;;;5.75;2.50;;;;;;;;;;5073738;28;20201;-68
2022/02/14 07:50:11;;;;;;;3.90;2.60;;;;;;;;;;5073370;28;20205;-68
2022/02/14 07:52:40;;;;;;;6.97;2.42;;;;;;;;;;5073605;28;20182;-68
2022/02/14 07:55:08;;;;;;;2.70;2.50;;;;;;;;;;5073663;28;20194;-68
2022/02/14 07:57:35;;;;;;;4.10;2.83;;;;;;;;;;5073076;28;20196;-67
2022/02/14 08:00:03;;;;;;;3.17;2.70;;;;;;;;;;5073276;28;20295;-68
2022/02/14 08:02:30;;;;;;;5.80;2.50;;;;;;;;;;5073244;28;20201;-67
2022/02/14 08:04:57;;;;;;;3.15;2.80;;;;;;;;;;5073408;28;20663;-67
2022/02/14 08:07:25;;;;;;;2.63;2.40;;;;;;;;;;5072944;28;20201;-68
2022/02/14 08:09:53;;;;;;;4.30;2.63;;;;;;;;;;5072808;28;20201;-68
2022/02/14 08:12:20;;;;;;;3.58;2.80;;;;;;;;;;5073601;28;20200;-67
2022/02/14 08:14:48;;;;;;;6.30;2.65;;;;;;;;;;5073165;28;20201;-67
2022/02/14 08:17:16;;;;;;;2.70;2.50;;;;;;;;;;5073414;28;20213;-67
2022/02/14 08:19:43;;;;;;;3.10;2.42;;;;;;;;;;5072874;28;20535;-67
2022/02/14 08:22:11;;;;;;;2.77;2.50;;;;;;;;;;5073112;28;20202;-68
2022/02/14 08:24:38;;;;;;;6.45;2.53;;;;;;;;;;5072985;28;20484;-68
2022/02/14 08:27:07;;;;;;;2.60;2.33;;;;;;;;;;5073115;28;20205;-68
2022/02/14 08:29:35;;;;;;;2.93;2.50;;;;;;;;;;5072990;28;21040;-68
2022/02/14 08:32:02;;;;;;;3.20;2.13;;;;;;;;;;5072704;28;20449;-67
2022/02/14 08:34:30;;;;;;;4.17;2.27;;;;;;;;;;5073582;28;20456;-67
2022/02/14 08:36:57;;;;;;;5.07;2.90;;;;;;;;;;5076498;28;20444;-67
2022/02/14 08:39:24;;;;;;;4.90;2.77;;;;;;;;;;5076397;28;21006;-69
2022/02/14 08:41:52;;;;;;;3.58;3.28;;;;;;;;;;5076707;28;20439;-67
2022/02/14 08:44:23;;;;;;;4.07;2.50;;;;;;;;;;5076720;28;20239;-68
2022/02/14 08:46:50;;;;;;;5.60;2.53;;;;;;;;;;5076778;28;20463;-68
2022/02/14 08:49:17;;;;;;;2.80;2.60;;;;;;;;;;5076211;28;20444;-68
2022/02/14 08:51:48;;;;;;;2.57;2.37;;;;;;;;;;5076504;28;20225;-68
2022/02/14 08:54:17;;;;;;;5.80;2.80;;;;;;;;;;5076242;28;20474;-68
2022/02/14 08:56:46;;;;;;;6.03;2.67;;;;;;;;;;5076498;28;20440;-67
2022/02/14 08:59:19;;;;;;;2.97;2.20;;;;;;;;;;5076412;28;20943;-68
2022/02/14 09:01:50;;;;;;;3.47;2.65;;;;;;;;;;5076525;28;20428;-67
2022/02/14 09:04:18;;;;;;;3.13;2.40;;;;;;;;;;5075902;28;20289;-67
2022/02/14 09:06:48;;;;;;;4.20;2.63;;;;;;;;;;5076045;28;20896;-67
2022/02/14 09:09:15;;;;;;;5.80;2.50;;;;;;;;;;5075929;28;20444;-68
2022/02/14 09:11:42;;;;;;;2.77;2.30;;;;;;;;;;5075593;28;20452;-68
2022/02/14 09:14:09;;;;;;;4.50;2.23;;;;;;;;;;5075805;28;20582;-68
2022/02/14 09:16:37;;;;;;;3.13;2.23;;;;;;;;;;5076259;28;20475;-69
2022/02/14 09:19:05;;;;;;;3.73;2.43;;;;;;;;;;5076023;28;20489;-68
2022/02/14 09:21:33;;;;;;;3.07;2.77;;;;;;;;;;5075609;28;20590;-67
2022/02/14 09:24:00;;;;;;;4.47;2.70;;;;;;;;;;5075877;28;20504;-68
2022/02/14 09:26:29;;;;;;;3.40;3.10;;;;;;;;;;5076045;28;20475;-68
2022/02/14 09:28:56;;;;;;;8.03;4.50;;;;;;;;;;5076035;28;20846;-68
2022/02/14 09:31:24;;;;;;;3.77;2.60;;;;;;;;;;5075929;28;20436;-68
2022/02/14 09:33:51;;;;;;;2.67;2.40;;;;;;;;;;5075686;28;20543;-68
2022/02/14 09:36:19;;;;;;;2.85;2.45;;;;;;;;;;5076250;28;20476;-68
2022/02/14 09:38:48;;;;;;;3.57;2.90;;;;;;;;;;5075409;28;20281;-68
2022/02/14 09:41:16;;;;;;;3.80;2.50;;;;;;;;;;5075288;28;20445;-67
2022/02/14 09:43:45;;;;;;;4.90;2.93;;;;;;;;;;5075589;28;20452;-67
2022/02/14 09:46:12;;;;;;;2.33;2.20;;;;;;;;;;5074608;28;20570;-67
2022/02/14 09:48:41;;;;;;;5.70;2.47;;;;;;;;;;5075494;28;20448;-68
2022/02/14 09:51:09;;;;;;;4.93;2.60;;;;;;;;;;5075444;28;20441;-67
2022/02/14 09:53:38;;;;;;;3.57;2.40;;;;;;;;;;5075420;28;20472;-68
2022/02/14 09:56:05;;;;;;;5.23;2.87;;;;;;;;;;5075803;28;20455;-68
2022/02/14 09:58:32;;;;;;;3.73;2.83;;;;;;;;;;5075803;28;20457;-68
2022/02/14 10:01:01;;;;;;;5.47;3.33;;;;;;;;;;5074955;28;20451;-68
2022/02/14 10:03:28;;;;;;;3.50;3.13;;;;;;;;;;5074813;28;20480;-67
2022/02/14 10:05:56;;;;;;;2.50;2.30;;;;;;;;;;5075448;28;20476;-67
2022/02/14 10:08:24;;;;;;;6.80;3.13;;;;;;;;;;5075100;28;20483;-67
2022/02/14 10:10:53;;;;;;;6.23;2.60;;;;;;;;;;5074771;28;20476;-68
2022/02/14 10:13:31;;;;;;;2.37;2.17;;;;;;;;;;5075526;28;20460;-67
2022/02/14 10:15:59;;;;;;;3.75;2.83;;;;;;;;;;5075083;28;20440;-67
2022/02/14 10:18:27;;;;;;;10.40;2.40;;;;;;;;;;5074837;28;20291;-69
2022/02/14 10:21:14;;;;;;;5.50;2.50;;;;;;;;;;5074525;28;20531;-69
2022/02/14 10:23:57;;;;;;;10.10;2.40;;;;;;;;;;5074735;28;20562;-68
2022/02/14 10:26:27;;;;;;;3.10;2.20;;;;;;;;;;5074871;28;20548;-68
2022/02/14 10:28:55;;;;;;;4.70;4.00;;;;;;;;;;5074817;28;20428;-68
2022/02/14 10:31:22;;;;;;;4.80;2.67;;;;;;;;;;5074315;28;20445;-68
2022/02/14 10:33:51;;;;;;;3.80;3.40;;;;;;;;;;5074698;28;20803;-68
2022/02/14 10:36:28;;;;;;;4.87;3.03;;;;;;;;;;5074540;28;20445;-68
2022/02/14 10:38:56;;;;;;;5.83;2.47;;;;;;;;;;5074653;28;20420;-68
2022/02/14 10:41:23;;;;;;;3.63;3.10;;;;;;;;;;5074379;28;20451;-68
2022/02/14 10:43:51;;;;;;;2.67;2.47;;;;;;;;;;5074402;28;20441;-68
2022/02/14 10:46:20;;;;;;;2.73;2.43;;;;;;;;;;5074649;28;20484;-68
2022/02/14 10:48:47;;;;;;;3.63;2.43;;;;;;;;;;5074254;28;20479;-68
2022/02/14 10:51:18;;;;;;;5.33;2.30;;;;;;;;;;5074239;28;20586;-68
2022/02/14 10:53:46;;;;;;;4.80;2.70;;;;;;;;;;5073846;28;20440;-68
2022/02/14 10:56:14;;;;;;;5.47;2.80;;;;;;;;;;5074152;28;20933;-68
2022/02/14 10:58:42;;;;;;;2.77;2.20;;;;;;;;;;5073954;28;20455;-68
2022/02/14 11:01:12;;;;;;;6.40;2.80;;;;;;;;;;5074050;28;20490;-68
2022/02/14 11:03:40;;;;;;;3.37;2.83;;;;;;;;;;5074231;28;20436;-68
2022/02/14 11:06:07;;;;;;;3.53;2.30;;;;;;;;;;5073833;28;20977;-68
2022/02/14 11:08:36;;;;;;;2.90;2.70;;;;;;;;;;5074969;28;20477;-68
2022/02/14 11:11:04;;;;;;;4.60;3.07;;;;;;;;;;5073619;28;20452;-68
2022/02/14 11:13:32;;;;;;;3.13;2.80;;;;;;;;;;5073871;28;20448;-68
2022/02/14 11:16:00;;;;;;;7.33;2.57;;;;;;;;;;5073584;28;20474;-68
2022/02/14 11:18:32;;;;;;;6.23;3.07;;;;;;;;;;5073495;28;20948;-68
2022/02/14 11:21:00;;;;;;;4.23;3.37;;;;;;;;;;5073570;28;20433;-68
2022/02/14 11:23:30;;;;;;;17.93;3.10;;;;;;;;;;5073536;28;20473;-68
2022/02/14 11:26:01;;;;;;;6.33;2.83;;;;;;;;;;5074095;28;20875;-68
2022/02/14 11:28:30;;;;;;;3.00;2.80;;;;;;;;;;5073601;28;20447;-67
2022/02/14 11:31:10;;;;;;;13.10;3.80;;;;;;;;;;5073623;28;20815;-68
2022/02/14 11:33:40;;;;;;;4.33;2.80;;;;;;;;;;5073166;28;20444;-68
2022/02/14 11:36:08;;;;;;;3.60;3.27;;;;;;;;;;5073699;28;20461;-69
2022/02/14 11:38:42;;;;;;;6.03;2.70;;;;;;;;;;5073412;28;20865;-69
2022/02/14 11:41:40;;;;;;;3.97;3.00;;;;;;;;;;5073506;28;20433;-68
2022/02/14 11:44:20;;;;;;;2.70;2.53;;;;;;;;;;5031133;28;20549;-67
2022/02/14 11:46:47;;;;;;;3.20;2.20;;;;;;;;;;5067699;28;20531;-67
2022/02/14 11:49:18;;;;;;;3.13;2.90;;;;;;;;;;5073165;28;21046;-68
2022/02/14 11:51:45;;;;;;;2.80;2.60;;;;;;;;;;5073525;28;20421;-68
2022/02/14 11:54:31;;;;;;;3.03;2.83;;;;;;;;;;5073025;28;20530;-66
2022/02/14 11:57:21;;;;;;;2.43;2.33;;;;;;;;;;5073063;28;20497;-67
2022/02/14 11:59:49;;;;;;;3.83;3.53;;;;;;;;;;5073369;28;20424;-67
2022/02/14 12:02:16;;;;;;;3.50;3.20;;;;;;;;;;5073309;28;20519;-67
2022/02/14 12:04:46;;;;;;;3.50;3.30;;;;;;;;;;5073520;28;20457;-68
2022/02/14 12:07:32;;;;;;;4.40;4.10;;;;;;;;;;5073886;28;20886;-68
2022/02/14 12:10:18;;;;;;;4.17;3.87;;;;;;;;;;5074406;28;20425;-67
2022/02/14 12:13:09;;;;;;;4.57;4.17;;;;;;;;;;5077277;28;20440;-67
2022/02/14 12:21:19;;;;;;;2.00;1.90;;;;;;;;;;5076994;28;20970;-67
2022/02/14 12:23:56;;;;;;;2.90;2.30;;;;;;;;;;5077339;28;20468;-67
2022/02/14 12:26:27;;;;;;;1.80;1.70;;;;;;;;;;5077478;28;20879;-67
2022/02/14 12:31:36;;;;;;;2.20;1.97;;;;;;;;;;5076495;28;20438;-68
2022/02/14 12:34:03;;;;;;;2.70;1.80;;;;;;;;;;5076920;28;20932;-68
2022/02/14 12:36:32;;;;;;;1.60;1.50;;;;;;;;;;5076759;28;20483;-68
2022/02/14 12:39:00;;;;;;;1.60;1.50;;;;;;;;;;5076748;28;20452;-74
2022/02/14 12:41:27;;;;;;;2.00;1.90;;;;;;;;;;5076866;28;20483;-67
2022/02/14 12:43:54;;;;;;;1.73;1.40;;;;;;;;;;5076367;28;20483;-68
2022/02/14 12:46:22;;;;;;;2.03;1.70;;;;;;;;;;5076333;28;20558;-67
2022/02/14 12:48:51;;;;;;;3.00;1.70;;;;;;;;;;5077446;28;20437;-67
2022/02/14 12:51:23;;;;;;;2.93;1.83;;;;;;;;;;5075893;28;20436;-67
2022/02/14 12:53:53;;;;;;;1.60;1.50;;;;;;;;;;5075107;28;21005;-68
2022/02/14 12:56:21;;;;;;;1.20;1.10;;;;;;;;;;5076461;28;20792;-68
2022/02/14 12:58:50;;;;;;;3.73;2.40;;;;;;;;;;5076152;28;20446;-68
2022/02/14 13:01:18;;;;;;;3.20;2.47;;;;;;;;;;5076937;28;20782;-68
2022/02/14 13:03:53;;;;;;;2.20;2.00;;;;;;;;;;5076139;28;20448;-68
2022/02/14 13:06:21;;;;;;;1.80;1.70;;;;;;;;;;5075950;28;20467;-68
2022/02/14 13:08:52;;;;;;;2.30;1.90;;;;;;;;;;5076124;28;20472;-68
2022/02/14 13:11:21;;;;;;;2.30;2.10;;;;;;;;;;5076961;28;20977;-68
2022/02/14 13:13:48;;;;;;;2.17;1.90;;;;;;;;;;5075833;28;20472;-67
2022/02/14 13:16:15;;;;;;;2.23;2.00;;;;;;;;;;5076476;28;20585;-67
2022/02/14 13:18:44;;;;;;;3.20;1.67;;;;;;;;;;5076213;28;20499;-67
2022/02/14 13:21:12;;;;;;;4.83;1.60;;;;;;;;;;5074974;28;20441;-68
2022/02/14 13:23:41;;;;;;;3.43;1.70;;;;;;;;;;5075501;28;20560;-68
2022/02/14 13:26:18;;;;;;;2.27;1.77;;;;;;;;;;5076445;28;20552;-68
2022/02/14 13:28:46;;;;;;;1.57;1.47;;;;;;;;;;5075568;28;20451;-68
2022/02/14 13:31:20;;;;;;;2.20;1.50;;;;;;;;;;5075760;28;20444;-68
2022/02/14 13:33:51;;;;;;;1.93;1.73;;;;;;;;;;5075824;28;20464;-68
2022/02/14 13:36:19;;;;;;;2.90;2.37;;;;;;;;;;5076547;28;20440;-68
2022/02/14 13:38:46;;;;;;;2.33;1.43;;;;;;;;;;5075581;28;20902;-68
2022/02/14 13:41:14;;;;;;;3.23;1.80;;;;;;;;;;5075222;28;20452;-68
2022/02/14 13:43:42;;;;;;;3.13;1.90;;;;;;;;;;5075241;28;20449;-68
2022/02/14 13:46:12;;;;;;;5.88;2.33;;;;;;;;;;5075466;28;20519;-68
2022/02/14 13:48:44;;;;;;;4.93;2.05;;;;;;;;;;5075604;28;20581;-67
2022/02/14 13:51:21;;;;;;;1.83;1.73;;;;;;;;;;5075330;28;20278;-68
2022/02/14 13:53:59;;;;;;;2.93;2.03;;;;;;;;;;5075107;28;20441;-67
2022/02/14 13:56:26;;;;;;;7.53;2.20;;;;;;;;;;5075005;28;20448;-67
2022/02/14 13:58:55;;;;;;;2.20;2.00;;;;;;;;;;5075299;28;20252;-68
2022/02/14 14:01:25;;;;;;;2.60;2.20;;;;;;;;;;5074947;28;20451;-67
2022/02/14 14:03:53;;;;;;;3.23;2.30;;;;;;;;;;5074901;28;20440;-67
2022/02/14 14:06:21;;;;;;;2.50;2.27;;;;;;;;;;5075069;28;20483;-67
2022/02/14 14:08:48;;;;;;;2.53;1.97;;;;;;;;;;5075757;28;20523;-68
2022/02/14 14:11:26;;;;;;;3.93;2.40;;;;;;;;;;5074684;28;20494;-69
2022/02/14 14:13:53;;;;;;;5.73;2.70;;;;;;;;;;5075776;28;20520;-69
2022/02/14 14:16:21;;;;;;;4.17;2.63;;;;;;;;;;5075302;28;20877;-68
2022/02/14 14:18:49;;;;;;;4.03;2.90;;;;;;;;;;5074914;28;20437;-68
2022/02/14 14:21:18;;;;;;;2.97;2.67;;;;;;;;;;5075264;28;20984;-68
2022/02/14 14:23:45;;;;;;;6.03;3.00;;;;;;;;;;5074970;28;20464;-67
2022/02/14 14:26:13;;;;;;;2.90;2.70;;;;;;;;;;5074461;28;20515;-68
2022/02/14 14:28:42;;;;;;;2.70;2.50;;;;;;;;;;5074375;28;20524;-68
2022/02/14 14:31:09;;;;;;;5.70;2.73;;;;;;;;;;5074603;28;20441;-68
2022/02/14 14:33:36;;;;;;;3.17;2.87;;;;;;;;;;5074361;28;20436;-68
2022/02/14 14:36:05;;;;;;;3.23;2.60;;;;;;;;;;5074276;28;20436;-68
2022/02/14 14:38:33;;;;;;;2.53;2.33;;;;;;;;;;5074587;28;20474;-67
2022/02/14 14:41:01;;;;;;;7.60;2.80;;;;;;;;;;5074700;28;20450;-68
2022/02/14 14:43:28;;;;;;;5.73;2.77;;;;;;;;;;5074146;28;20491;-68
2022/02/14 14:45:55;;;;;;;6.77;3.07;;;;;;;;;;5074349;28;20487;-69
2022/02/14 14:48:23;;;;;;;2.90;2.60;;;;;;;;;;5073973;28;21014;-69
2022/02/14 14:50:50;;;;;;;3.20;2.50;;;;;;;;;;5074060;28;21013;-69
2022/02/14 14:53:19;;;;;;;4.60;2.43;;;;;;;;;;5074270;28;20441;-69
2022/02/14 14:55:46;;;;;;;2.83;2.47;;;;;;;;;;5073777;28;20451;-68
2022/02/14 14:58:13;;;;;;;4.23;3.10;;;;;;;;;;5074275;28;20502;-68
2022/02/14 15:00:40;;;;;;;8.13;3.80;;;;;;;;;;5074275;28;20468;-68